Hlavní strana
METAR-TAF:

METAR-TAF

Letiště :

Perry, Georgie, Spojené státy americké

zeměpisná šířka: 32-30-38N, zeměpisná délka: 083-46-02W, výška: 127 m

Aktuální stav počasí

Zpráva byla vytvořena před 27 minutami, v 10:35 UTC
Jihojihozápadní vítr 3 kt
Teplota 19°C
Vlhkost vzduchu 94%
Tlak 1022 hPa
Viditelnost: 16.1 km
Jasno

METAR: KPXE 241035Z AUTO 21003KT 10SM CLR 19/18 A3018 RMK AO2 T01900180

Čas: 07:02 (11:02 UTC)


TAF: chybějící

Stav a předpovědi počasí z více než 4 000 letišť (zprávy METAR a TAF).

Červené a žluté tečky na mapě představují dostupné meteorologické stanice.

Když kurzor umístíte na tečku, zobrazí se název stanice.

Pak kliknutím zobrazíte stav a předpověď počasí.

Chcete-li změnit mapu, kliknutím na zelené tlačítko se znaménkem +mapu přiblížíte, kliknutím na zelené tlačítko se znaménkem – mapu oddálíte a kliknutím na zelené šipky přejdete na sousední mapy.


METAR-TAF: